createdAt,value
2018-12-04T00:00:24.287Z,1.17
2018-12-04T00:03:05.721Z,2.10
2018-12-04T00:05:46.973Z,1.70
2018-12-04T00:08:28.715Z,1.70
2018-12-04T00:11:09.734Z,1.93
2018-12-04T00:13:51.183Z,1.67
2018-12-04T00:16:32.726Z,1.73
2018-12-04T00:19:13.875Z,1.53
2018-12-04T00:21:55.117Z,1.70
2018-12-04T00:24:34.614Z,1.40
2018-12-04T00:27:22.962Z,2.03
2018-12-04T00:30:03.935Z,1.43
2018-12-04T00:33:04.014Z,2.00
2018-12-04T00:35:32.185Z,1.50
2018-12-04T00:38:00.423Z,1.93
2018-12-04T00:40:28.514Z,1.60
2018-12-04T00:42:56.905Z,1.93
2018-12-04T00:45:25.068Z,1.50
2018-12-04T00:47:53.172Z,1.37
2018-12-04T00:50:21.380Z,1.43
2018-12-04T00:52:49.530Z,1.97
2018-12-04T00:55:17.697Z,1.40
2018-12-04T00:57:46.029Z,1.60
2018-12-04T01:00:14.297Z,1.43
2018-12-04T01:02:42.482Z,1.27
2018-12-04T01:05:11.017Z,1.23
2018-12-04T01:07:39.343Z,1.20
2018-12-04T01:10:07.652Z,1.20
2018-12-04T01:12:35.829Z,1.60
2018-12-04T01:15:05.157Z,1.17
2018-12-04T01:17:33.346Z,1.50
2018-12-04T01:20:01.767Z,1.50
2018-12-04T01:22:29.962Z,1.70
2018-12-04T01:24:58.097Z,1.57
2018-12-04T01:27:26.412Z,1.90
2018-12-04T01:29:54.507Z,1.57
2018-12-04T01:32:22.629Z,1.60
2018-12-04T01:34:51.125Z,1.80
2018-12-04T01:37:19.313Z,1.30
2018-12-04T01:39:47.492Z,1.40
2018-12-04T01:42:15.824Z,1.90
2018-12-04T01:44:44.021Z,1.17
2018-12-04T01:47:12.185Z,1.27
2018-12-04T01:49:40.317Z,1.50
2018-12-04T01:52:08.430Z,1.50
2018-12-04T01:54:36.634Z,1.63
2018-12-04T01:57:05.185Z,1.50
2018-12-04T01:59:33.321Z,1.63
2018-12-04T02:02:01.425Z,1.30
2018-12-04T02:04:29.961Z,1.50
2018-12-04T02:06:58.070Z,1.33
2018-12-04T02:09:26.323Z,1.60
2018-12-04T02:11:54.877Z,1.53
2018-12-04T02:14:22.977Z,0.90
2018-12-04T02:16:51.106Z,1.87
2018-12-04T02:19:19.233Z,1.47
2018-12-04T02:21:47.397Z,1.70
2018-12-04T02:24:15.606Z,1.17
2018-12-04T02:26:44.025Z,1.20
2018-12-04T02:29:12.121Z,1.47
2018-12-04T02:31:40.266Z,1.43
2018-12-04T02:34:08.369Z,1.77
2018-12-04T02:36:36.473Z,1.37
2018-12-04T02:39:07.120Z,1.17
2018-12-04T02:41:35.344Z,1.30
2018-12-04T02:44:03.660Z,1.93
2018-12-04T02:46:31.841Z,1.80
2018-12-04T02:49:00.065Z,1.43
2018-12-04T02:51:28.178Z,1.53
2018-12-04T02:53:56.375Z,1.50
2018-12-04T02:56:24.883Z,2.00
2018-12-04T02:58:53.048Z,1.60
2018-12-04T03:01:21.514Z,1.27
2018-12-04T03:03:49.696Z,1.33
2018-12-04T03:06:18.849Z,1.33
2018-12-04T03:08:47.006Z,1.70
2018-12-04T03:11:15.354Z,1.70
2018-12-04T03:13:43.522Z,1.13
2018-12-04T03:16:11.604Z,1.23
2018-12-04T03:18:40.081Z,1.17
2018-12-04T03:21:08.320Z,1.40
2018-12-04T03:23:36.525Z,1.30
2018-12-04T03:26:04.702Z,1.70
2018-12-04T03:28:32.944Z,1.17
2018-12-04T03:31:01.046Z,1.20
2018-12-04T03:33:38.864Z,2.50
2018-12-04T03:36:07.246Z,1.87
2018-12-04T03:38:35.377Z,1.20
2018-12-04T03:41:03.701Z,1.33
2018-12-04T03:43:32.105Z,1.13
2018-12-04T03:46:00.285Z,1.30
2018-12-04T03:48:28.837Z,1.00
2018-12-04T03:50:57.125Z,1.00
2018-12-04T03:53:25.285Z,1.20
2018-12-04T03:55:53.458Z,1.47
2018-12-04T03:58:21.716Z,1.60
2018-12-04T04:00:49.797Z,1.40
2018-12-04T04:03:18.277Z,1.77
2018-12-04T04:05:46.373Z,1.20
2018-12-04T04:08:14.540Z,1.50
2018-12-04T04:10:42.701Z,1.77
2018-12-04T04:13:10.931Z,1.17
2018-12-04T04:15:39.268Z,1.40
2018-12-04T04:18:07.736Z,1.40
2018-12-04T04:20:35.893Z,0.93
2018-12-04T04:23:04.122Z,1.13
2018-12-04T04:25:32.217Z,1.17
2018-12-04T04:28:00.425Z,1.37
2018-12-04T04:30:28.667Z,1.63
2018-12-04T04:32:57.056Z,1.50
2018-12-04T04:35:25.151Z,1.30
2018-12-04T04:37:53.249Z,1.30
2018-12-04T04:40:21.646Z,2.30
2018-12-04T04:42:49.800Z,1.43
2018-12-04T04:45:18.022Z,1.50
2018-12-04T04:47:46.208Z,1.20
2018-12-04T04:50:14.422Z,1.30
2018-12-04T04:52:42.533Z,1.20
2018-12-04T04:55:10.853Z,1.37
2018-12-04T04:57:39.072Z,1.80
2018-12-04T05:00:07.378Z,1.20
2018-12-04T05:02:35.809Z,1.37
2018-12-04T05:05:04.543Z,1.10
2018-12-04T05:07:32.699Z,1.00
2018-12-04T05:10:00.874Z,1.20
2018-12-04T05:12:29.110Z,1.20
2018-12-04T05:14:57.275Z,1.33
2018-12-04T05:17:25.692Z,1.33
2018-12-04T05:19:53.892Z,0.83
2018-12-04T05:22:22.045Z,1.50
2018-12-04T05:24:50.153Z,1.10
2018-12-04T05:27:18.349Z,1.23
2018-12-04T05:29:46.481Z,1.33
2018-12-04T05:32:14.645Z,1.37
2018-12-04T05:34:42.745Z,1.20
2018-12-04T05:37:10.871Z,1.70
2018-12-04T05:39:39.296Z,1.43
2018-12-04T05:42:07.409Z,1.60
2018-12-04T05:44:35.585Z,1.23
2018-12-04T05:47:03.941Z,1.83
2018-12-04T05:49:32.113Z,1.40
2018-12-04T05:52:00.272Z,1.47
2018-12-04T05:54:28.758Z,1.50
2018-12-04T05:56:56.986Z,1.73
2018-12-04T05:59:25.066Z,1.70
2018-12-04T06:01:53.426Z,1.47
2018-12-04T06:04:21.751Z,1.40
2018-12-04T06:06:50.069Z,1.90
2018-12-04T06:09:18.424Z,1.07
2018-12-04T06:11:46.585Z,1.60
2018-12-04T06:14:14.672Z,1.43
2018-12-04T06:16:42.919Z,1.27
2018-12-04T06:19:11.014Z,2.00
2018-12-04T06:21:39.111Z,1.10
2018-12-04T06:24:07.621Z,1.10
2018-12-04T06:26:35.853Z,1.23
2018-12-04T06:29:04.085Z,1.60
2018-12-04T06:31:32.536Z,1.70
2018-12-04T06:34:00.793Z,1.20
2018-12-04T06:36:28.942Z,1.13
2018-12-04T06:38:57.036Z,1.03
2018-12-04T06:41:25.208Z,1.27
2018-12-04T06:43:53.314Z,0.90
2018-12-04T06:46:21.781Z,1.30
2018-12-04T06:48:49.858Z,1.10
2018-12-04T06:51:18.008Z,1.20
2018-12-04T06:53:46.410Z,1.20
2018-12-04T06:56:14.573Z,1.30
2018-12-04T06:58:42.747Z,1.33
2018-12-04T07:01:11.246Z,1.30
2018-12-04T07:03:39.413Z,1.33
2018-12-04T07:06:07.505Z,1.43
2018-12-04T07:08:35.609Z,1.37
2018-12-04T07:11:03.714Z,1.10
2018-12-04T07:13:31.805Z,1.30
2018-12-04T07:16:00.015Z,1.53
2018-12-04T07:18:28.109Z,2.03
2018-12-04T07:20:56.184Z,2.20
2018-12-04T07:23:24.285Z,2.23
2018-12-04T07:25:52.440Z,2.00
2018-12-04T07:28:20.529Z,2.00
2018-12-04T07:30:48.879Z,1.33
2018-12-04T07:33:17.155Z,1.90
2018-12-04T07:35:45.392Z,2.00
2018-12-04T07:38:13.793Z,2.37
2018-12-04T07:40:42.008Z,2.33
2018-12-04T07:43:10.182Z,2.07
2018-12-04T07:45:38.297Z,1.47
2018-12-04T07:48:06.494Z,1.33
2018-12-04T07:50:34.633Z,1.20
2018-12-04T07:53:02.741Z,2.03
2018-12-04T07:55:30.917Z,1.30
2018-12-04T07:57:59.059Z,1.67
2018-12-04T08:00:27.314Z,1.20
2018-12-04T08:02:55.587Z,1.43
2018-12-04T08:05:23.742Z,1.20
2018-12-04T08:07:52.055Z,1.10
2018-12-04T08:10:20.177Z,1.80
2018-12-04T08:12:48.327Z,1.30
2018-12-04T08:15:16.545Z,1.10
2018-12-04T08:17:44.701Z,1.10
2018-12-04T08:20:12.885Z,0.90
2018-12-04T08:22:41.381Z,1.13
2018-12-04T08:25:09.605Z,1.10
2018-12-04T08:27:38.737Z,1.27
2018-12-04T08:30:08.357Z,1.63
2018-12-04T08:32:36.486Z,0.97
2018-12-04T08:35:06.977Z,1.30
2018-12-04T08:37:35.377Z,1.37
2018-12-04T08:40:03.901Z,1.23
2018-12-04T08:42:31.995Z,1.37
2018-12-04T08:45:00.102Z,0.87
2018-12-04T08:47:28.222Z,1.53
2018-12-04T08:49:56.360Z,2.00
2018-12-04T08:52:24.455Z,1.73
2018-12-04T08:54:52.577Z,1.43
2018-12-04T08:57:21.261Z,1.33
2018-12-04T08:59:49.407Z,1.10
2018-12-04T09:02:17.510Z,1.50
2018-12-04T09:04:45.749Z,1.67
2018-12-04T09:07:13.862Z,1.20
2018-12-04T09:09:42.067Z,1.50
2018-12-04T09:12:10.275Z,1.40
2018-12-04T09:14:38.461Z,2.00
2018-12-04T09:17:06.629Z,2.10
2018-12-04T09:19:34.773Z,1.07
2018-12-04T09:22:03.080Z,1.70
2018-12-04T09:24:31.344Z,1.70
2018-12-04T09:27:05.322Z,2.20
2018-12-04T09:29:29.695Z,1.83
2018-12-04T09:31:58.018Z,1.50
2018-12-04T09:34:29.826Z,1.47
2018-12-04T09:36:56.497Z,1.30
2018-12-04T09:39:24.642Z,1.50
2018-12-04T09:41:52.929Z,1.67
2018-12-04T09:44:21.139Z,1.53
2018-12-04T09:46:49.317Z,1.50
2018-12-04T09:49:17.509Z,1.77
2018-12-04T09:51:45.709Z,1.13
2018-12-04T09:54:13.939Z,1.30
2018-12-04T09:56:42.342Z,2.40
2018-12-04T09:59:10.551Z,1.97
2018-12-04T10:01:38.713Z,1.90
2018-12-04T10:04:06.786Z,1.30
2018-12-04T10:06:35.239Z,1.57
2018-12-04T10:09:05.386Z,1.93
2018-12-04T10:11:33.481Z,2.10
2018-12-04T10:14:01.717Z,1.70
2018-12-04T10:16:29.857Z,1.70
2018-12-04T10:18:58.209Z,1.60
2018-12-04T10:21:26.398Z,1.33
2018-12-04T10:23:54.635Z,1.53
2018-12-04T10:26:22.711Z,1.83
2018-12-04T10:28:51.098Z,1.47
2018-12-04T10:31:19.196Z,1.23
2018-12-04T10:33:47.306Z,1.60
2018-12-04T10:36:15.498Z,1.20
2018-12-04T10:38:43.645Z,1.03
2018-12-04T10:41:11.914Z,1.33
2018-12-04T10:43:40.047Z,1.57
2018-12-04T10:46:08.279Z,1.00
2018-12-04T10:48:36.458Z,1.37
2018-12-04T10:51:04.718Z,1.27
2018-12-04T10:53:32.796Z,0.73
2018-12-04T10:56:00.886Z,1.10
2018-12-04T10:58:29.146Z,0.80
2018-12-04T11:00:58.679Z,1.17
2018-12-04T11:03:32.305Z,1.20
2018-12-04T11:06:00.407Z,1.27
2018-12-04T11:08:28.534Z,1.40
2018-12-04T11:10:56.705Z,1.40
2018-12-04T11:13:24.841Z,1.37
2018-12-04T11:15:53.058Z,2.10
2018-12-04T11:18:21.245Z,1.57
2018-12-04T11:20:49.406Z,1.37
2018-12-04T11:23:17.578Z,1.20
2018-12-04T11:25:47.214Z,1.30
2018-12-04T11:28:15.830Z,1.10
2018-12-04T11:30:44.041Z,1.93
2018-12-04T11:33:12.272Z,1.27
2018-12-04T11:35:40.481Z,1.30
2018-12-04T11:38:08.637Z,1.43
2018-12-04T11:40:37.114Z,0.93
2018-12-04T11:43:05.283Z,1.67
2018-12-04T11:45:33.521Z,1.20
2018-12-04T11:48:01.701Z,1.17
2018-12-04T11:50:29.833Z,1.70
2018-12-04T11:52:58.065Z,1.07
2018-12-04T11:55:26.509Z,1.00
2018-12-04T11:57:54.603Z,1.00
2018-12-04T12:00:26.073Z,1.20
2018-12-04T12:02:54.167Z,1.03
2018-12-04T12:05:22.453Z,1.30
2018-12-04T12:07:50.885Z,1.30
2018-12-04T12:10:18.995Z,1.50
2018-12-04T12:12:47.170Z,1.07
2018-12-04T12:15:17.977Z,1.00
2018-12-04T12:17:45.405Z,1.10
2018-12-04T12:20:13.616Z,0.70
2018-12-04T12:22:42.056Z,0.60
2018-12-04T12:25:10.299Z,0.60
2018-12-04T12:27:38.524Z,0.70
2018-12-04T12:30:08.999Z,0.50
2018-12-04T12:32:37.161Z,0.50
2018-12-04T12:35:07.069Z,0.60
2018-12-04T12:37:35.505Z,0.50
2018-12-04T12:40:04.121Z,1.10
2018-12-04T12:42:32.293Z,0.73
2018-12-04T12:45:00.461Z,0.93
2018-12-04T12:47:28.541Z,0.90
2018-12-04T12:49:56.790Z,0.60
2018-12-04T12:52:25.166Z,0.40
2018-12-04T12:54:53.237Z,0.50
2018-12-04T12:57:21.429Z,0.90
2018-12-04T12:59:49.537Z,0.63
2018-12-04T13:02:17.685Z,0.77
2018-12-04T13:04:45.781Z,0.60
2018-12-04T13:07:13.942Z,0.70
2018-12-04T13:09:42.073Z,0.90
2018-12-04T13:12:10.254Z,0.57
2018-12-04T13:14:38.509Z,0.87
2018-12-04T13:17:06.651Z,0.90
2018-12-04T13:19:34.878Z,1.60
2018-12-04T13:22:03.177Z,1.70
2018-12-04T13:24:31.337Z,0.70
2018-12-04T13:26:59.570Z,0.90
2018-12-04T13:29:27.665Z,1.37
2018-12-04T13:31:55.865Z,1.20
2018-12-04T13:34:24.075Z,0.93
2018-12-04T13:36:52.725Z,1.50
2018-12-04T13:39:21.085Z,0.90
2018-12-04T13:41:49.242Z,1.30
2018-12-04T13:44:17.742Z,1.27
2018-12-04T13:46:45.851Z,0.83
2018-12-04T13:49:14.081Z,0.90
2018-12-04T13:51:42.216Z,1.00
2018-12-04T13:54:10.518Z,0.97
2018-12-04T13:56:38.918Z,0.90
2018-12-04T13:59:07.181Z,0.80
2018-12-04T14:01:35.406Z,0.93
2018-12-04T14:04:03.657Z,1.20
2018-12-04T14:06:31.983Z,1.13
2018-12-04T14:09:00.080Z,0.83
2018-12-04T14:11:28.241Z,0.80
2018-12-04T14:13:56.762Z,0.80
2018-12-04T14:16:25.026Z,0.97
2018-12-04T14:18:53.304Z,1.17
2018-12-04T14:21:21.505Z,0.73
2018-12-04T14:23:49.749Z,0.67
2018-12-04T14:26:17.851Z,0.93
2018-12-04T14:28:46.314Z,1.10
2018-12-04T14:31:14.533Z,1.00
2018-12-04T14:33:42.771Z,0.90
2018-12-04T14:36:10.952Z,0.90
2018-12-04T14:38:39.127Z,0.60
2018-12-04T14:41:07.489Z,1.00
2018-12-04T14:43:35.736Z,0.90
2018-12-04T14:46:03.992Z,1.07
2018-12-04T14:48:32.216Z,0.80
2018-12-04T14:51:00.501Z,0.90
2018-12-04T14:53:28.736Z,0.77
2018-12-04T14:55:56.872Z,1.37
2018-12-04T14:58:26.051Z,1.20
2018-12-04T15:00:54.259Z,0.97
2018-12-04T15:03:22.542Z,1.00
2018-12-04T15:05:50.808Z,0.97
2018-12-04T15:08:19.119Z,0.63
2018-12-04T15:10:47.430Z,1.00
2018-12-04T15:13:15.899Z,0.90
2018-12-04T15:15:44.067Z,1.50
2018-12-04T15:18:12.340Z,1.20
2018-12-04T15:20:40.501Z,2.47
2018-12-04T15:23:08.708Z,5.60
2018-12-04T15:25:36.956Z,3.27
2018-12-04T15:28:05.751Z,3.50
2018-12-04T15:30:33.971Z,2.80
2018-12-04T15:33:03.333Z,2.30
2018-12-04T15:35:31.848Z,2.30
2018-12-04T15:38:00.040Z,2.60
2018-12-04T15:40:28.377Z,1.93
2018-12-04T15:42:56.659Z,2.50
2018-12-04T15:45:24.934Z,1.70
2018-12-04T15:47:53.239Z,1.90
2018-12-04T15:50:21.537Z,1.73
2018-12-04T15:52:49.905Z,1.70
2018-12-04T15:55:18.079Z,1.63
2018-12-04T15:57:46.294Z,1.40
2018-12-04T16:00:14.526Z,1.43
2018-12-04T16:02:42.673Z,1.37
2018-12-04T16:05:11.528Z,1.33
2018-12-04T16:07:39.681Z,1.40
2018-12-04T16:10:11.029Z,1.37
2018-12-04T16:12:39.185Z,1.30
2018-12-04T16:15:07.434Z,1.40
2018-12-04T16:17:35.909Z,1.50
2018-12-04T16:20:05.026Z,1.30
2018-12-04T16:22:33.293Z,1.30
2018-12-04T16:25:01.522Z,1.20
2018-12-04T16:27:29.753Z,1.35
2018-12-04T16:29:57.996Z,1.40
2018-12-04T16:32:26.103Z,1.90
2018-12-04T16:34:54.182Z,1.47
2018-12-04T16:37:22.338Z,1.60
2018-12-04T16:39:50.413Z,1.60
2018-12-04T16:42:18.686Z,1.90
2018-12-04T16:44:46.790Z,1.60
2018-12-04T16:47:14.985Z,2.07
2018-12-04T16:49:43.085Z,1.80
2018-12-04T16:52:11.241Z,2.00
2018-12-04T16:54:39.492Z,2.70
2018-12-04T16:57:07.855Z,2.23
2018-12-04T16:59:35.913Z,2.67
2018-12-04T17:02:04.365Z,2.10
2018-12-04T17:04:32.530Z,1.67
2018-12-04T17:07:00.706Z,2.20
2018-12-04T17:09:28.797Z,1.93
2018-12-04T17:11:56.896Z,1.87
2018-12-04T17:14:24.989Z,1.97
2018-12-04T17:16:53.511Z,1.73
2018-12-04T17:19:21.610Z,1.67
2018-12-04T17:21:49.789Z,1.83
2018-12-04T17:24:18.185Z,2.37
2018-12-04T17:26:46.425Z,2.67
2018-12-04T17:29:14.928Z,2.62
2018-12-04T17:31:43.085Z,2.83
2018-12-04T17:34:11.204Z,3.03
2018-12-04T17:36:39.307Z,2.93
2018-12-04T17:39:08.510Z,2.47
2018-12-04T17:41:36.594Z,3.07
2018-12-04T17:44:04.837Z,3.43
2018-12-04T17:46:32.940Z,3.17
2018-12-04T17:49:01.257Z,3.20
2018-12-04T17:51:29.469Z,2.90
2018-12-04T17:53:57.631Z,2.50
2018-12-04T17:56:25.881Z,2.23
2018-12-04T17:58:54.587Z,2.10
2018-12-04T18:01:23.233Z,2.40
2018-12-04T18:03:51.305Z,1.97
2018-12-04T18:06:19.835Z,1.80
2018-12-04T18:08:48.145Z,2.27
2018-12-04T18:11:16.426Z,2.30
2018-12-04T18:13:44.573Z,2.03
2018-12-04T18:16:12.657Z,1.70
2018-12-04T18:18:40.793Z,1.90
2018-12-04T18:21:08.944Z,2.13
2018-12-04T18:23:37.493Z,2.23
2018-12-04T18:26:05.642Z,2.20
2018-12-04T18:28:33.834Z,2.20
2018-12-04T18:31:02.321Z,2.97
2018-12-04T18:33:30.409Z,3.60
2018-12-04T18:35:58.597Z,5.60
2018-12-04T18:38:26.946Z,5.10
2018-12-04T18:40:56.668Z,7.20
2018-12-04T18:43:24.977Z,6.83
2018-12-04T18:45:53.161Z,5.97
2018-12-04T18:48:21.312Z,4.30
2018-12-04T18:50:49.573Z,2.60
2018-12-04T18:53:17.749Z,2.30
2018-12-04T18:55:45.843Z,2.53
2018-12-04T18:58:13.914Z,2.00
2018-12-04T19:00:42.745Z,2.23
2018-12-04T19:03:10.994Z,3.23
2018-12-04T19:05:39.149Z,3.73
2018-12-04T19:08:07.442Z,3.63
2018-12-04T19:10:35.693Z,4.27
2018-12-04T19:13:03.909Z,3.20
2018-12-04T19:15:32.334Z,3.47
2018-12-04T19:18:00.433Z,3.03
2018-12-04T19:20:28.517Z,2.83
2018-12-04T19:22:56.608Z,2.70
2018-12-04T19:25:24.801Z,3.00
2018-12-04T19:27:53.938Z,2.87
2018-12-04T19:30:22.489Z,3.37
2018-12-04T19:32:50.581Z,3.50
2018-12-04T19:35:18.740Z,3.47
2018-12-04T19:37:46.807Z,2.70
2018-12-04T19:40:14.961Z,2.10
2018-12-04T19:42:44.741Z,2.40
2018-12-04T19:45:13.557Z,2.40
2018-12-04T19:47:41.659Z,2.50
2018-12-04T19:50:09.981Z,2.73
2018-12-04T19:52:38.213Z,2.33
2018-12-04T19:55:06.929Z,2.13
2018-12-04T19:57:35.103Z,2.20
2018-12-04T20:00:03.871Z,1.97
2018-12-04T20:02:32.037Z,2.17
2018-12-04T20:05:00.141Z,2.40
2018-12-04T20:07:28.483Z,2.20
2018-12-04T20:09:56.777Z,2.57
2018-12-04T20:12:24.879Z,2.33
2018-12-04T20:14:53.183Z,2.70
2018-12-04T20:17:21.465Z,4.20
2018-12-04T20:19:49.811Z,4.70
2018-12-04T20:22:18.241Z,2.77
2018-12-04T20:24:46.334Z,2.47
2018-12-04T20:27:14.542Z,2.13
2018-12-04T20:29:43.080Z,3.00
2018-12-04T20:32:11.266Z,2.90
2018-12-04T20:34:39.414Z,3.20
2018-12-04T20:37:07.617Z,4.33
2018-12-04T20:39:36.009Z,3.03
2018-12-04T20:42:08.311Z,2.43
2018-12-04T20:44:34.933Z,2.90
2018-12-04T20:47:03.106Z,4.87
2018-12-04T20:49:31.343Z,5.70
2018-12-04T20:51:59.577Z,5.80
2018-12-04T20:54:27.682Z,4.67
2018-12-04T20:56:55.961Z,3.07
2018-12-04T20:59:24.445Z,3.00
2018-12-04T21:01:52.613Z,2.93
2018-12-04T21:04:20.712Z,3.87
2018-12-04T21:06:49.065Z,3.70
2018-12-04T21:09:17.370Z,4.30
2018-12-04T21:11:45.521Z,3.80
2018-12-04T21:14:13.758Z,3.43
2018-12-04T21:16:41.835Z,3.87
2018-12-04T21:19:10.052Z,3.57
2018-12-04T21:21:38.280Z,3.40
2018-12-04T21:24:06.834Z,3.80
2018-12-04T21:26:36.902Z,3.23
2018-12-04T21:29:10.585Z,3.80
2018-12-04T21:31:44.033Z,3.30
2018-12-04T21:34:17.725Z,3.63
2018-12-04T21:36:51.125Z,3.40
2018-12-04T21:39:23.552Z,2.80
2018-12-04T21:42:01.240Z,3.07
2018-12-04T21:44:34.963Z,4.00
2018-12-04T21:47:08.799Z,5.33
2018-12-04T21:49:37.130Z,4.93
2018-12-04T21:52:05.265Z,3.83
2018-12-04T21:54:33.498Z,3.60
2018-12-04T21:57:01.678Z,3.30
2018-12-04T21:59:29.816Z,3.30
2018-12-04T22:01:58.214Z,3.30
2018-12-04T22:04:26.660Z,3.60
2018-12-04T22:06:54.867Z,4.40
2018-12-04T22:09:23.093Z,4.27
2018-12-04T22:11:51.213Z,4.70
2018-12-04T22:14:19.285Z,5.33
2018-12-04T22:16:47.462Z,5.37
2018-12-04T22:19:15.585Z,5.33
2018-12-04T22:21:43.774Z,4.47
2018-12-04T22:24:11.849Z,4.80
2018-12-04T22:26:39.989Z,4.40
2018-12-04T22:29:08.174Z,3.70
2018-12-04T22:31:36.264Z,4.60
2018-12-04T22:34:04.719Z,3.87
2018-12-04T22:36:32.861Z,3.93
2018-12-04T22:39:00.941Z,3.90
2018-12-04T22:41:29.438Z,4.60
2018-12-04T22:43:57.311Z,4.13
2018-12-04T22:46:25.397Z,3.97
2018-12-04T22:48:53.624Z,4.17
2018-12-04T22:51:21.813Z,4.17
2018-12-04T22:53:49.994Z,3.77
2018-12-04T22:56:18.493Z,4.30
2018-12-04T22:58:46.657Z,4.13
2018-12-04T23:01:28.669Z,4.23
2018-12-04T23:03:56.865Z,4.63
2018-12-04T23:06:24.997Z,4.60
2018-12-04T23:08:53.987Z,5.20
2018-12-04T23:11:22.465Z,5.07
2018-12-04T23:13:50.558Z,4.20
2018-12-04T23:16:18.817Z,4.07
2018-12-04T23:18:46.916Z,4.77
2018-12-04T23:21:15.065Z,3.83
2018-12-04T23:23:43.461Z,5.13
2018-12-04T23:26:11.546Z,4.77
2018-12-04T23:28:39.685Z,4.93
2018-12-04T23:31:07.929Z,3.80
2018-12-04T23:33:36.018Z,4.13
2018-12-04T23:36:04.258Z,4.23
2018-12-04T23:38:32.433Z,3.93
2018-12-04T23:41:00.617Z,3.97
2018-12-04T23:43:28.835Z,4.13
2018-12-04T23:45:57.234Z,4.57
2018-12-04T23:48:25.323Z,4.03
2018-12-04T23:50:53.436Z,4.07
2018-12-04T23:53:21.545Z,4.53
2018-12-04T23:55:49.624Z,3.80
2018-12-04T23:58:17.705Z,4.10
